sensor_id;sensor_type;location;lat;lon;timestamp;P1;durP1;ratioP1;P2;durP2;ratioP2
23826;SDS011;12094;50.822;4.376;2022-08-05T00:00:13;10.35;;;4.03;;
23826;SDS011;12094;50.822;4.376;2022-08-05T00:02:43;9.88;;;3.70;;
23826;SDS011;12094;50.822;4.376;2022-08-05T00:05:17;10.45;;;3.50;;
23826;SDS011;12094;50.822;4.376;2022-08-05T00:08:06;5.65;;;3.47;;
23826;SDS011;12094;50.822;4.376;2022-08-05T00:10:55;8.27;;;3.58;;
23826;SDS011;12094;50.822;4.376;2022-08-05T00:13:28;11.82;;;3.80;;
23826;SDS011;12094;50.822;4.376;2022-08-05T00:16:09;8.57;;;3.50;;
23826;SDS011;12094;50.822;4.376;2022-08-05T00:18:44;8.52;;;3.33;;
23826;SDS011;12094;50.822;4.376;2022-08-05T00:21:14;7.70;;;3.28;;
23826;SDS011;12094;50.822;4.376;2022-08-05T00:23:44;9.45;;;3.38;;
23826;SDS011;12094;50.822;4.376;2022-08-05T00:26:32;10.93;;;3.20;;
23826;SDS011;12094;50.822;4.376;2022-08-05T00:29:00;7.97;;;3.42;;
23826;SDS011;12094;50.822;4.376;2022-08-05T00:31:28;7.05;;;3.45;;
23826;SDS011;12094;50.822;4.376;2022-08-05T00:34:16;8.40;;;3.42;;
23826;SDS011;12094;50.822;4.376;2022-08-05T00:37:04;9.82;;;3.33;;
23826;SDS011;12094;50.822;4.376;2022-08-05T00:39:38;5.80;;;2.90;;
23826;SDS011;12094;50.822;4.376;2022-08-05T00:42:34;8.30;;;3.15;;
23826;SDS011;12094;50.822;4.376;2022-08-05T00:45:06;5.78;;;2.80;;
23826;SDS011;12094;50.822;4.376;2022-08-05T00:47:39;9.93;;;3.35;;
23826;SDS011;12094;50.822;4.376;2022-08-05T00:50:22;9.05;;;3.45;;
23826;SDS011;12094;50.822;4.376;2022-08-05T00:52:58;8.90;;;3.45;;
23826;SDS011;12094;50.822;4.376;2022-08-05T00:55:32;7.72;;;3.50;;
23826;SDS011;12094;50.822;4.376;2022-08-05T00:58:08;6.38;;;3.38;;
23826;SDS011;12094;50.822;4.376;2022-08-05T01:00:39;8.38;;;3.75;;
23826;SDS011;12094;50.822;4.376;2022-08-05T01:03:09;9.02;;;3.55;;
23826;SDS011;12094;50.822;4.376;2022-08-05T01:05:48;10.75;;;4.07;;
23826;SDS011;12094;50.822;4.376;2022-08-05T01:08:20;9.27;;;3.75;;
23826;SDS011;12094;50.822;4.376;2022-08-05T01:11:12;11.68;;;4.35;;
23826;SDS011;12094;50.822;4.376;2022-08-05T01:19:44;7.63;;;4.45;;
23826;SDS011;12094;50.822;4.376;2022-08-05T01:30:50;11.32;;;4.20;;
23826;SDS011;12094;50.822;4.376;2022-08-05T01:33:30;8.75;;;4.78;;
23826;SDS011;12094;50.822;4.376;2022-08-05T01:36:06;10.32;;;4.13;;
23826;SDS011;12094;50.822;4.376;2022-08-05T01:38:41;9.60;;;4.45;;
23826;SDS011;12094;50.822;4.376;2022-08-05T01:41:11;11.57;;;4.95;;
23826;SDS011;12094;50.822;4.376;2022-08-05T01:43:40;9.32;;;3.85;;
23826;SDS011;12094;50.822;4.376;2022-08-05T01:46:08;8.90;;;4.20;;
23826;SDS011;12094;50.822;4.376;2022-08-05T01:48:55;7.97;;;4.38;;
23826;SDS011;12094;50.822;4.376;2022-08-05T01:51:24;8.75;;;4.43;;
23826;SDS011;12094;50.822;4.376;2022-08-05T01:53:55;10.23;;;4.47;;
23826;SDS011;12094;50.822;4.376;2022-08-05T01:56:28;9.27;;;4.88;;
23826;SDS011;12094;50.822;4.376;2022-08-05T01:59:17;15.38;;;4.70;;
23826;SDS011;12094;50.822;4.376;2022-08-05T02:01:48;14.32;;;4.63;;
23826;SDS011;12094;50.822;4.376;2022-08-05T02:04:20;13.75;;;4.90;;
23826;SDS011;12094;50.822;4.376;2022-08-05T02:06:49;11.10;;;5.05;;
23826;SDS011;12094;50.822;4.376;2022-08-05T02:09:16;9.52;;;4.38;;
23826;SDS011;12094;50.822;4.376;2022-08-05T02:14:51;12.18;;;4.70;;
23826;SDS011;12094;50.822;4.376;2022-08-05T02:17:30;11.20;;;4.95;;
23826;SDS011;12094;50.822;4.376;2022-08-05T02:20:36;11.65;;;4.82;;
23826;SDS011;12094;50.822;4.376;2022-08-05T02:23:12;14.80;;;5.30;;
23826;SDS011;12094;50.822;4.376;2022-08-05T02:25:42;10.48;;;4.68;;
23826;SDS011;12094;50.822;4.376;2022-08-05T02:28:18;12.70;;;5.07;;
23826;SDS011;12094;50.822;4.376;2022-08-05T02:31:02;11.38;;;5.00;;
23826;SDS011;12094;50.822;4.376;2022-08-05T02:33:41;14.13;;;5.20;;
23826;SDS011;12094;50.822;4.376;2022-08-05T02:38:53;14.38;;;5.68;;
23826;SDS011;12094;50.822;4.376;2022-08-05T02:41:24;14.82;;;5.57;;
23826;SDS011;12094;50.822;4.376;2022-08-05T02:44:05;11.00;;;4.88;;
23826;SDS011;12094;50.822;4.376;2022-08-05T02:46:39;14.73;;;5.32;;
23826;SDS011;12094;50.822;4.376;2022-08-05T02:49:24;15.82;;;5.70;;
23826;SDS011;12094;50.822;4.376;2022-08-05T02:52:01;15.13;;;5.53;;
23826;SDS011;12094;50.822;4.376;2022-08-05T02:54:31;10.75;;;6.13;;
23826;SDS011;12094;50.822;4.376;2022-08-05T02:57:06;14.35;;;6.13;;
23826;SDS011;12094;50.822;4.376;2022-08-05T02:59:56;12.57;;;6.53;;
23826;SDS011;12094;50.822;4.376;2022-08-05T03:02:28;15.82;;;6.18;;
23826;SDS011;12094;50.822;4.376;2022-08-05T03:05:00;17.80;;;6.78;;
23826;SDS011;12094;50.822;4.376;2022-08-05T03:07:28;12.43;;;6.38;;
23826;SDS011;12094;50.822;4.376;2022-08-05T03:13:31;14.65;;;6.50;;
23826;SDS011;12094;50.822;4.376;2022-08-05T03:16:17;15.25;;;6.68;;
23826;SDS011;12094;50.822;4.376;2022-08-05T03:18:45;13.63;;;6.68;;
23826;SDS011;12094;50.822;4.376;2022-08-05T03:21:14;17.85;;;6.60;;
23826;SDS011;12094;50.822;4.376;2022-08-05T03:23:41;11.35;;;6.20;;
23826;SDS011;12094;50.822;4.376;2022-08-05T03:26:12;20.13;;;7.20;;
23826;SDS011;12094;50.822;4.376;2022-08-05T03:28:58;14.98;;;7.32;;
23826;SDS011;12094;50.822;4.376;2022-08-05T03:31:37;13.73;;;6.82;;
23826;SDS011;12094;50.822;4.376;2022-08-05T03:34:32;17.80;;;6.95;;
23826;SDS011;12094;50.822;4.376;2022-08-05T03:37:01;15.20;;;7.57;;
23826;SDS011;12094;50.822;4.376;2022-08-05T03:39:31;19.00;;;8.18;;
23826;SDS011;12094;50.822;4.376;2022-08-05T03:42:18;15.70;;;6.95;;
23826;SDS011;12094;50.822;4.376;2022-08-05T03:44:45;19.55;;;7.70;;
23826;SDS011;12094;50.822;4.376;2022-08-05T03:47:12;22.35;;;7.20;;
23826;SDS011;12094;50.822;4.376;2022-08-05T03:49:40;19.98;;;7.47;;
23826;SDS011;12094;50.822;4.376;2022-08-05T03:52:18;15.68;;;6.97;;
23826;SDS011;12094;50.822;4.376;2022-08-05T03:55:16;14.77;;;7.53;;
23826;SDS011;12094;50.822;4.376;2022-08-05T03:58:08;19.25;;;7.85;;
23826;SDS011;12094;50.822;4.376;2022-08-05T04:00:38;19.42;;;8.13;;
23826;SDS011;12094;50.822;4.376;2022-08-05T04:03:10;17.10;;;8.37;;
23826;SDS011;12094;50.822;4.376;2022-08-05T04:05:54;17.13;;;7.97;;
23826;SDS011;12094;50.822;4.376;2022-08-05T04:08:24;25.48;;;8.43;;
23826;SDS011;12094;50.822;4.376;2022-08-05T04:11:04;21.17;;;8.25;;
23826;SDS011;12094;50.822;4.376;2022-08-05T04:13:37;22.10;;;8.20;;
23826;SDS011;12094;50.822;4.376;2022-08-05T04:16:19;17.02;;;7.93;;
23826;SDS011;12094;50.822;4.376;2022-08-05T04:18:51;20.33;;;8.73;;
23826;SDS011;12094;50.822;4.376;2022-08-05T04:21:19;17.50;;;7.70;;
23826;SDS011;12094;50.822;4.376;2022-08-05T04:24:07;17.75;;;8.18;;
23826;SDS011;12094;50.822;4.376;2022-08-05T04:26:45;16.17;;;8.00;;
23826;SDS011;12094;50.822;4.376;2022-08-05T04:29:12;18.60;;;7.75;;
23826;SDS011;12094;50.822;4.376;2022-08-05T04:31:39;20.42;;;8.35;;
23826;SDS011;12094;50.822;4.376;2022-08-05T04:34:08;17.10;;;7.75;;
23826;SDS011;12094;50.822;4.376;2022-08-05T04:36:55;16.60;;;7.55;;
23826;SDS011;12094;50.822;4.376;2022-08-05T04:39:24;24.65;;;7.90;;
23826;SDS011;12094;50.822;4.376;2022-08-05T04:41:55;24.08;;;7.68;;
23826;SDS011;12094;50.822;4.376;2022-08-05T04:44:27;16.10;;;7.68;;
23826;SDS011;12094;50.822;4.376;2022-08-05T04:46:59;18.48;;;6.95;;
23826;SDS011;12094;50.822;4.376;2022-08-05T04:49:45;17.65;;;7.72;;
23826;SDS011;12094;50.822;4.376;2022-08-05T04:52:31;18.27;;;7.97;;
23826;SDS011;12094;50.822;4.376;2022-08-05T04:54:59;21.73;;;8.02;;
23826;SDS011;12094;50.822;4.376;2022-08-05T04:57:41;19.13;;;7.97;;
23826;SDS011;12094;50.822;4.376;2022-08-05T05:00:13;16.77;;;7.47;;
23826;SDS011;12094;50.822;4.376;2022-08-05T05:02:42;21.50;;;7.93;;
23826;SDS011;12094;50.822;4.376;2022-08-05T05:05:12;17.65;;;7.65;;
23826;SDS011;12094;50.822;4.376;2022-08-05T05:07:55;17.25;;;7.70;;
23826;SDS011;12094;50.822;4.376;2022-08-05T05:10:29;22.42;;;7.78;;
23826;SDS011;12094;50.822;4.376;2022-08-05T05:13:03;15.52;;;7.22;;
23826;SDS011;12094;50.822;4.376;2022-08-05T05:15:34;19.42;;;7.65;;
23826;SDS011;12094;50.822;4.376;2022-08-05T05:18:23;22.77;;;8.05;;
23826;SDS011;12094;50.822;4.376;2022-08-05T05:21:00;20.35;;;7.53;;
23826;SDS011;12094;50.822;4.376;2022-08-05T05:23:29;24.58;;;7.82;;
23826;SDS011;12094;50.822;4.376;2022-08-05T05:26:16;20.98;;;7.80;;
23826;SDS011;12094;50.822;4.376;2022-08-05T05:28:59;21.08;;;7.88;;
23826;SDS011;12094;50.822;4.376;2022-08-05T05:31:27;22.20;;;7.10;;
23826;SDS011;12094;50.822;4.376;2022-08-05T05:33:56;17.38;;;7.30;;
23826;SDS011;12094;50.822;4.376;2022-08-05T05:36:27;16.60;;;6.97;;
23826;SDS011;12094;50.822;4.376;2022-08-05T05:38:55;15.57;;;7.18;;
23826;SDS011;12094;50.822;4.376;2022-08-05T05:41:25;19.55;;;7.78;;
23826;SDS011;12094;50.822;4.376;2022-08-05T05:44:06;17.95;;;6.93;;
23826;SDS011;12094;50.822;4.376;2022-08-05T05:46:54;16.60;;;7.55;;
23826;SDS011;12094;50.822;4.376;2022-08-05T05:49:24;19.98;;;7.10;;
23826;SDS011;12094;50.822;4.376;2022-08-05T05:51:52;18.08;;;6.95;;
23826;SDS011;12094;50.822;4.376;2022-08-05T05:57:39;12.30;;;6.85;;
23826;SDS011;12094;50.822;4.376;2022-08-05T06:00:20;21.75;;;7.50;;
23826;SDS011;12094;50.822;4.376;2022-08-05T06:02:59;21.90;;;7.50;;
23826;SDS011;12094;50.822;4.376;2022-08-05T06:05:28;20.20;;;7.03;;
23826;SDS011;12094;50.822;4.376;2022-08-05T06:07:58;20.15;;;7.15;;
23826;SDS011;12094;50.822;4.376;2022-08-05T06:10:30;15.15;;;6.75;;
23826;SDS011;12094;50.822;4.376;2022-08-05T06:18:53;15.60;;;7.50;;
23826;SDS011;12094;50.822;4.376;2022-08-05T06:21:26;17.02;;;6.60;;
23826;SDS011;12094;50.822;4.376;2022-08-05T06:24:06;19.80;;;6.93;;
23826;SDS011;12094;50.822;4.376;2022-08-05T06:26:37;17.83;;;6.72;;
23826;SDS011;12094;50.822;4.376;2022-08-05T06:29:20;17.52;;;7.90;;
23826;SDS011;12094;50.822;4.376;2022-08-05T06:32:09;15.48;;;6.90;;
23826;SDS011;12094;50.822;4.376;2022-08-05T06:34:52;19.60;;;7.25;;
23826;SDS011;12094;50.822;4.376;2022-08-05T06:37:22;18.98;;;7.25;;
23826;SDS011;12094;50.822;4.376;2022-08-05T06:40:15;17.90;;;7.22;;
23826;SDS011;12094;50.822;4.376;2022-08-05T06:42:48;19.05;;;7.60;;
23826;SDS011;12094;50.822;4.376;2022-08-05T06:45:21;16.83;;;7.63;;
23826;SDS011;12094;50.822;4.376;2022-08-05T06:48:11;19.38;;;7.47;;
23826;SDS011;12094;50.822;4.376;2022-08-05T06:53:55;26.05;;;8.60;;
23826;SDS011;12094;50.822;4.376;2022-08-05T06:56:27;19.00;;;7.30;;
23826;SDS011;12094;50.822;4.376;2022-08-05T06:59:02;15.95;;;7.82;;
23826;SDS011;12094;50.822;4.376;2022-08-05T07:01:38;16.83;;;7.85;;
23826;SDS011;12094;50.822;4.376;2022-08-05T07:04:11;20.85;;;7.93;;
23826;SDS011;12094;50.822;4.376;2022-08-05T07:06:39;27.03;;;8.47;;
23826;SDS011;12094;50.822;4.376;2022-08-05T07:11:57;20.20;;;7.57;;
23826;SDS011;12094;50.822;4.376;2022-08-05T07:14:26;24.63;;;8.48;;
23826;SDS011;12094;50.822;4.376;2022-08-05T07:18:01;18.98;;;7.78;;
23826;SDS011;12094;50.822;4.376;2022-08-05T07:20:35;19.65;;;7.97;;
23826;SDS011;12094;50.822;4.376;2022-08-05T07:23:06;17.42;;;7.90;;
23826;SDS011;12094;50.822;4.376;2022-08-05T07:25:38;23.27;;;8.02;;
23826;SDS011;12094;50.822;4.376;2022-08-05T07:28:22;20.60;;;7.80;;
23826;SDS011;12094;50.822;4.376;2022-08-05T07:30:52;19.65;;;8.68;;
23826;SDS011;12094;50.822;4.376;2022-08-05T07:33:21;13.93;;;7.70;;
23826;SDS011;12094;50.822;4.376;2022-08-05T07:45:00;19.15;;;7.63;;
23826;SDS011;12094;50.822;4.376;2022-08-05T07:51:10;18.75;;;7.20;;
23826;SDS011;12094;50.822;4.376;2022-08-05T07:53:57;12.88;;;7.60;;
23826;SDS011;12094;50.822;4.376;2022-08-05T07:56:28;20.33;;;8.27;;
23826;SDS011;12094;50.822;4.376;2022-08-05T07:59:15;17.58;;;7.78;;
23826;SDS011;12094;50.822;4.376;2022-08-05T08:01:47;18.85;;;7.43;;
23826;SDS011;12094;50.822;4.376;2022-08-05T08:04:24;16.35;;;7.50;;
23826;SDS011;12094;50.822;4.376;2022-08-05T08:10:16;14.18;;;7.05;;
23826;SDS011;12094;50.822;4.376;2022-08-05T08:12:46;14.18;;;6.63;;
23826;SDS011;12094;50.822;4.376;2022-08-05T08:18:52;13.10;;;5.35;;
23826;SDS011;12094;50.822;4.376;2022-08-05T08:21:20;14.15;;;5.57;;
23826;SDS011;12094;50.822;4.376;2022-08-05T08:23:47;21.02;;;5.50;;
23826;SDS011;12094;50.822;4.376;2022-08-05T08:26:29;16.30;;;5.30;;
23826;SDS011;12094;50.822;4.376;2022-08-05T08:31:50;12.13;;;4.95;;
23826;SDS011;12094;50.822;4.376;2022-08-05T08:34:18;16.45;;;4.63;;
23826;SDS011;12094;50.822;4.376;2022-08-05T08:36:58;17.05;;;4.65;;
23826;SDS011;12094;50.822;4.376;2022-08-05T08:45:17;13.32;;;4.00;;
23826;SDS011;12094;50.822;4.376;2022-08-05T08:47:56;10.68;;;3.10;;
23826;SDS011;12094;50.822;4.376;2022-08-05T08:50:47;7.30;;;3.53;;
23826;SDS011;12094;50.822;4.376;2022-08-05T08:59:48;9.30;;;3.05;;
23826;SDS011;12094;50.822;4.376;2022-08-05T09:02:20;13.57;;;2.80;;
23826;SDS011;12094;50.822;4.376;2022-08-05T09:04:52;9.88;;;2.72;;
23826;SDS011;12094;50.822;4.376;2022-08-05T09:07:39;10.07;;;3.35;;
23826;SDS011;12094;50.822;4.376;2022-08-05T09:16:34;9.48;;;2.72;;
23826;SDS011;12094;50.822;4.376;2022-08-05T09:25:49;6.13;;;3.15;;
23826;SDS011;12094;50.822;4.376;2022-08-05T09:28:29;9.88;;;3.30;;
23826;SDS011;12094;50.822;4.376;2022-08-05T09:34:44;15.07;;;4.82;;
23826;SDS011;12094;50.822;4.376;2022-08-05T09:37:16;10.15;;;3.95;;
23826;SDS011;12094;50.822;4.376;2022-08-05T09:40:05;7.68;;;4.43;;
23826;SDS011;12094;50.822;4.376;2022-08-05T09:42:42;8.45;;;4.75;;
23826;SDS011;12094;50.822;4.376;2022-08-05T09:48:44;9.15;;;4.93;;
23826;SDS011;12094;50.822;4.376;2022-08-05T09:51:35;11.55;;;5.30;;
23826;SDS011;12094;50.822;4.376;2022-08-05T09:54:07;10.52;;;5.25;;
23826;SDS011;12094;50.822;4.376;2022-08-05T09:57:48;7.57;;;4.20;;
23826;SDS011;12094;50.822;4.376;2022-08-05T10:00:21;7.70;;;3.10;;
23826;SDS011;12094;50.822;4.376;2022-08-05T10:05:40;6.45;;;3.20;;
23826;SDS011;12094;50.822;4.376;2022-08-05T10:08:08;5.28;;;2.63;;
23826;SDS011;12094;50.822;4.376;2022-08-05T10:10:55;8.52;;;2.88;;
23826;SDS011;12094;50.822;4.376;2022-08-05T10:13:31;6.38;;;2.72;;
23826;SDS011;12094;50.822;4.376;2022-08-05T10:19:18;6.90;;;2.00;;
23826;SDS011;12094;50.822;4.376;2022-08-05T10:22:06;3.65;;;1.65;;
23826;SDS011;12094;50.822;4.376;2022-08-05T10:24:41;6.45;;;1.77;;
23826;SDS011;12094;50.822;4.376;2022-08-05T10:27:11;7.10;;;1.75;;
23826;SDS011;12094;50.822;4.376;2022-08-05T10:29:42;3.28;;;1.30;;
23826;SDS011;12094;50.822;4.376;2022-08-05T10:32:29;3.78;;;1.30;;
23826;SDS011;12094;50.822;4.376;2022-08-05T10:35:19;8.35;;;1.52;;
23826;SDS011;12094;50.822;4.376;2022-08-05T10:38:06;9.23;;;1.58;;
23826;SDS011;12094;50.822;4.376;2022-08-05T10:40:38;3.65;;;1.77;;
23826;SDS011;12094;50.822;4.376;2022-08-05T10:43:27;7.32;;;1.63;;
23826;SDS011;12094;50.822;4.376;2022-08-05T10:46:07;2.60;;;1.10;;
23826;SDS011;12094;50.822;4.376;2022-08-05T10:48:42;3.92;;;1.40;;
23826;SDS011;12094;50.822;4.376;2022-08-05T10:54:44;5.28;;;1.38;;
23826;SDS011;12094;50.822;4.376;2022-08-05T10:57:27;4.27;;;1.20;;
23826;SDS011;12094;50.822;4.376;2022-08-05T11:00:08;6.50;;;1.77;;
23826;SDS011;12094;50.822;4.376;2022-08-05T11:06:04;3.60;;;1.48;;
23826;SDS011;12094;50.822;4.376;2022-08-05T11:11:57;5.10;;;1.73;;
23826;SDS011;12094;50.822;4.376;2022-08-05T11:17:30;5.82;;;1.65;;
23826;SDS011;12094;50.822;4.376;2022-08-05T11:26:51;5.57;;;1.63;;
23826;SDS011;12094;50.822;4.376;2022-08-05T11:30:14;6.53;;;1.60;;
23826;SDS011;12094;50.822;4.376;2022-08-05T11:32:41;5.82;;;1.30;;
23826;SDS011;12094;50.822;4.376;2022-08-05T11:44:11;10.93;;;1.60;;
23826;SDS011;12094;50.822;4.376;2022-08-05T11:47:01;8.93;;;1.40;;
23826;SDS011;12094;50.822;4.376;2022-08-05T11:49:53;4.93;;;1.45;;
23826;SDS011;12094;50.822;4.376;2022-08-05T11:52:23;3.20;;;1.40;;
23826;SDS011;12094;50.822;4.376;2022-08-05T11:54:55;4.70;;;1.70;;
23826;SDS011;12094;50.822;4.376;2022-08-05T11:57:28;5.70;;;1.73;;
23826;SDS011;12094;50.822;4.376;2022-08-05T12:00:24;7.53;;;1.42;;
23826;SDS011;12094;50.822;4.376;2022-08-05T12:02:55;7.10;;;1.58;;
23826;SDS011;12094;50.822;4.376;2022-08-05T12:05:25;8.73;;;1.65;;
23826;SDS011;12094;50.822;4.376;2022-08-05T12:08:01;3.53;;;1.45;;
23826;SDS011;12094;50.822;4.376;2022-08-05T12:10:36;9.52;;;1.30;;
23826;SDS011;12094;50.822;4.376;2022-08-05T12:13:13;4.43;;;1.27;;
23826;SDS011;12094;50.822;4.376;2022-08-05T12:16:03;6.55;;;1.52;;
23826;SDS011;12094;50.822;4.376;2022-08-05T12:18:41;5.20;;;1.30;;
23826;SDS011;12094;50.822;4.376;2022-08-05T12:21:19;8.13;;;1.60;;
23826;SDS011;12094;50.822;4.376;2022-08-05T12:26:31;3.63;;;1.10;;
23826;SDS011;12094;50.822;4.376;2022-08-05T12:29:02;3.08;;;1.38;;
23826;SDS011;12094;50.822;4.376;2022-08-05T12:31:45;2.40;;;1.00;;
23826;SDS011;12094;50.822;4.376;2022-08-05T12:34:25;5.03;;;1.20;;
23826;SDS011;12094;50.822;4.376;2022-08-05T12:37:02;5.07;;;1.30;;
23826;SDS011;12094;50.822;4.376;2022-08-05T12:39:47;4.72;;;1.27;;
23826;SDS011;12094;50.822;4.376;2022-08-05T12:42:17;4.95;;;1.17;;
23826;SDS011;12094;50.822;4.376;2022-08-05T12:44:45;3.33;;;1.30;;
23826;SDS011;12094;50.822;4.376;2022-08-05T12:47:13;5.90;;;1.25;;
23826;SDS011;12094;50.822;4.376;2022-08-05T12:49:55;4.80;;;1.02;;
23826;SDS011;12094;50.822;4.376;2022-08-05T12:52:31;4.97;;;1.10;;
23826;SDS011;12094;50.822;4.376;2022-08-05T12:55:16;5.10;;;1.10;;
23826;SDS011;12094;50.822;4.376;2022-08-05T12:57:51;4.80;;;1.00;;
23826;SDS011;12094;50.822;4.376;2022-08-05T13:00:43;3.85;;;1.00;;
23826;SDS011;12094;50.822;4.376;2022-08-05T13:03:33;3.30;;;0.80;;
23826;SDS011;12094;50.822;4.376;2022-08-05T13:06:15;4.20;;;0.90;;
23826;SDS011;12094;50.822;4.376;2022-08-05T13:08:46;4.63;;;0.90;;
23826;SDS011;12094;50.822;4.376;2022-08-05T13:11:18;3.55;;;0.90;;
23826;SDS011;12094;50.822;4.376;2022-08-05T13:14:13;1.80;;;0.80;;
23826;SDS011;12094;50.822;4.376;2022-08-05T13:16:46;3.05;;;0.88;;
23826;SDS011;12094;50.822;4.376;2022-08-05T13:19:14;3.75;;;0.88;;
23826;SDS011;12094;50.822;4.376;2022-08-05T13:21:44;2.72;;;0.70;;
23826;SDS011;12094;50.822;4.376;2022-08-05T13:24:19;3.33;;;0.90;;
23826;SDS011;12094;50.822;4.376;2022-08-05T13:27:07;3.53;;;1.20;;
23826;SDS011;12094;50.822;4.376;2022-08-05T13:29:36;3.95;;;0.98;;
23826;SDS011;12094;50.822;4.376;2022-08-05T13:32:25;2.95;;;0.68;;
23826;SDS011;12094;50.822;4.376;2022-08-05T13:35:01;4.00;;;0.60;;
23826;SDS011;12094;50.822;4.376;2022-08-05T13:37:29;3.28;;;0.77;;
23826;SDS011;12094;50.822;4.376;2022-08-05T13:40:00;3.40;;;0.80;;
23826;SDS011;12094;50.822;4.376;2022-08-05T13:42:43;2.90;;;0.97;;
23826;SDS011;12094;50.822;4.376;2022-08-05T13:45:13;3.08;;;1.27;;
23826;SDS011;12094;50.822;4.376;2022-08-05T13:47:46;2.70;;;1.00;;
23826;SDS011;12094;50.822;4.376;2022-08-05T13:50:46;4.88;;;1.40;;
23826;SDS011;12094;50.822;4.376;2022-08-05T13:53:13;5.93;;;1.15;;
23826;SDS011;12094;50.822;4.376;2022-08-05T13:55:41;1.42;;;0.70;;
23826;SDS011;12094;50.822;4.376;2022-08-05T13:58:16;2.53;;;0.77;;
23826;SDS011;12094;50.822;4.376;2022-08-05T14:00:56;3.40;;;0.80;;
23826;SDS011;12094;50.822;4.376;2022-08-05T14:03:25;4.03;;;0.93;;
23826;SDS011;12094;50.822;4.376;2022-08-05T14:05:54;3.90;;;0.80;;
23826;SDS011;12094;50.822;4.376;2022-08-05T14:08:41;3.67;;;0.70;;
23826;SDS011;12094;50.822;4.376;2022-08-05T14:11:09;1.98;;;0.60;;
23826;SDS011;12094;50.822;4.376;2022-08-05T14:13:46;3.95;;;0.80;;
23826;SDS011;12094;50.822;4.376;2022-08-05T14:16:13;2.40;;;0.70;;
23826;SDS011;12094;50.822;4.376;2022-08-05T14:18:42;4.03;;;0.75;;
23826;SDS011;12094;50.822;4.376;2022-08-05T14:21:10;4.82;;;0.85;;
23826;SDS011;12094;50.822;4.376;2022-08-05T14:23:57;5.30;;;0.80;;
23826;SDS011;12094;50.822;4.376;2022-08-05T14:26:28;3.67;;;0.90;;
23826;SDS011;12094;50.822;4.376;2022-08-05T14:29:12;5.35;;;1.20;;
23826;SDS011;12094;50.822;4.376;2022-08-05T14:31:42;1.92;;;0.80;;
23826;SDS011;12094;50.822;4.376;2022-08-05T14:34:30;2.53;;;0.70;;
23826;SDS011;12094;50.822;4.376;2022-08-05T14:37:01;1.80;;;0.68;;
23826;SDS011;12094;50.822;4.376;2022-08-05T14:39:32;2.65;;;0.73;;
23826;SDS011;12094;50.822;4.376;2022-08-05T14:42:19;2.28;;;0.77;;
23826;SDS011;12094;50.822;4.376;2022-08-05T14:44:47;2.80;;;0.98;;
23826;SDS011;12094;50.822;4.376;2022-08-05T14:47:16;3.42;;;0.77;;
23826;SDS011;12094;50.822;4.376;2022-08-05T14:50:03;2.03;;;0.70;;
23826;SDS011;12094;50.822;4.376;2022-08-05T14:52:45;2.13;;;0.80;;
23826;SDS011;12094;50.822;4.376;2022-08-05T14:55:23;1.67;;;0.70;;
23826;SDS011;12094;50.822;4.376;2022-08-05T14:57:54;5.07;;;1.05;;
23826;SDS011;12094;50.822;4.376;2022-08-05T15:00:22;1.90;;;0.75;;
23826;SDS011;12094;50.822;4.376;2022-08-05T15:02:55;4.78;;;0.90;;
23826;SDS011;12094;50.822;4.376;2022-08-05T15:05:24;2.42;;;0.90;;
23826;SDS011;12094;50.822;4.376;2022-08-05T15:08:22;3.70;;;0.90;;
23826;SDS011;12094;50.822;4.376;2022-08-05T15:11:46;2.03;;;0.82;;
23826;SDS011;12094;50.822;4.376;2022-08-05T15:17:06;3.17;;;1.00;;
23826;SDS011;12094;50.822;4.376;2022-08-05T15:19:54;4.38;;;1.15;;
23826;SDS011;12094;50.822;4.376;2022-08-05T15:22:22;3.78;;;0.90;;
23826;SDS011;12094;50.822;4.376;2022-08-05T15:24:53;2.85;;;1.17;;
23826;SDS011;12094;50.822;4.376;2022-08-05T15:27:22;2.35;;;0.70;;
23826;SDS011;12094;50.822;4.376;2022-08-05T15:29:52;4.32;;;0.98;;
23826;SDS011;12094;50.822;4.376;2022-08-05T15:32:22;3.00;;;0.98;;
23826;SDS011;12094;50.822;4.376;2022-08-05T15:34:54;2.35;;;1.05;;
23826;SDS011;12094;50.822;4.376;2022-08-05T15:37:22;4.35;;;1.20;;
23826;SDS011;12094;50.822;4.376;2022-08-05T15:40:10;6.72;;;1.10;;
23826;SDS011;12094;50.822;4.376;2022-08-05T15:43:01;5.55;;;1.10;;
23826;SDS011;12094;50.822;4.376;2022-08-05T15:45:43;3.78;;;1.40;;
23826;SDS011;12094;50.822;4.376;2022-08-05T15:48:11;5.63;;;0.85;;
23826;SDS011;12094;50.822;4.376;2022-08-05T15:50:40;2.38;;;0.88;;
23826;SDS011;12094;50.822;4.376;2022-08-05T15:53:11;6.40;;;0.90;;
23826;SDS011;12094;50.822;4.376;2022-08-05T15:55:42;4.15;;;0.80;;
23826;SDS011;12094;50.822;4.376;2022-08-05T15:58:29;3.47;;;0.90;;
23826;SDS011;12094;50.822;4.376;2022-08-05T16:01:02;3.10;;;0.80;;
23826;SDS011;12094;50.822;4.376;2022-08-05T16:03:43;3.92;;;0.95;;
23826;SDS011;12094;50.822;4.376;2022-08-05T16:06:17;5.68;;;1.00;;
23826;SDS011;12094;50.822;4.376;2022-08-05T16:08:46;3.28;;;1.02;;
23826;SDS011;12094;50.822;4.376;2022-08-05T16:11:18;3.97;;;1.02;;
23826;SDS011;12094;50.822;4.376;2022-08-05T16:14:06;4.03;;;1.15;;
23826;SDS011;12094;50.822;4.376;2022-08-05T16:16:35;3.10;;;1.17;;
23826;SDS011;12094;50.822;4.376;2022-08-05T16:19:05;4.40;;;0.98;;
23826;SDS011;12094;50.822;4.376;2022-08-05T16:21:36;5.55;;;1.08;;
23826;SDS011;12094;50.822;4.376;2022-08-05T16:24:23;4.10;;;0.98;;
23826;SDS011;12094;50.822;4.376;2022-08-05T16:27:09;2.03;;;0.93;;
23826;SDS011;12094;50.822;4.376;2022-08-05T16:29:42;7.75;;;1.10;;
23826;SDS011;12094;50.822;4.376;2022-08-05T16:32:16;5.97;;;1.27;;
23826;SDS011;12094;50.822;4.376;2022-08-05T16:34:54;4.78;;;1.05;;
23826;SDS011;12094;50.822;4.376;2022-08-05T16:37:22;2.88;;;0.80;;
23826;SDS011;12094;50.822;4.376;2022-08-05T16:40:09;3.10;;;1.40;;
23826;SDS011;12094;50.822;4.376;2022-08-05T16:42:51;3.78;;;0.95;;
23826;SDS011;12094;50.822;4.376;2022-08-05T16:45:20;5.63;;;1.00;;
23826;SDS011;12094;50.822;4.376;2022-08-05T16:48:09;3.90;;;1.02;;
23826;SDS011;12094;50.822;4.376;2022-08-05T16:50:52;7.07;;;0.95;;
23826;SDS011;12094;50.822;4.376;2022-08-05T16:53:20;4.68;;;1.10;;
23826;SDS011;12094;50.822;4.376;2022-08-05T16:56:08;4.25;;;0.85;;
23826;SDS011;12094;50.822;4.376;2022-08-05T16:58:36;5.18;;;1.30;;
23826;SDS011;12094;50.822;4.376;2022-08-05T17:01:04;3.38;;;1.02;;
23826;SDS011;12094;50.822;4.376;2022-08-05T17:03:35;8.90;;;1.00;;
23826;SDS011;12094;50.822;4.376;2022-08-05T17:06:05;6.22;;;1.30;;
23826;SDS011;12094;50.822;4.376;2022-08-05T17:08:34;4.95;;;1.10;;
23826;SDS011;12094;50.822;4.376;2022-08-05T17:11:20;3.53;;;1.20;;
23826;SDS011;12094;50.822;4.376;2022-08-05T17:13:48;3.17;;;1.13;;
23826;SDS011;12094;50.822;4.376;2022-08-05T17:16:28;7.72;;;1.00;;
23826;SDS011;12094;50.822;4.376;2022-08-05T17:19:03;5.93;;;1.05;;
23826;SDS011;12094;50.822;4.376;2022-08-05T17:21:37;6.70;;;1.38;;
23826;SDS011;12094;50.822;4.376;2022-08-05T17:24:07;6.57;;;1.45;;
23826;SDS011;12094;50.822;4.376;2022-08-05T17:26:56;7.68;;;1.10;;
23826;SDS011;12094;50.822;4.376;2022-08-05T17:29:23;5.38;;;1.20;;
23826;SDS011;12094;50.822;4.376;2022-08-05T17:32:05;7.50;;;1.60;;
23826;SDS011;12094;50.822;4.376;2022-08-05T17:34:37;4.88;;;0.90;;
23826;SDS011;12094;50.822;4.376;2022-08-05T17:37:05;6.03;;;1.20;;
23826;SDS011;12094;50.822;4.376;2022-08-05T17:39:57;6.20;;;1.35;;
23826;SDS011;12094;50.822;4.376;2022-08-05T17:42:26;6.57;;;1.50;;
23826;SDS011;12094;50.822;4.376;2022-08-05T17:44:59;3.80;;;1.40;;
23826;SDS011;12094;50.822;4.376;2022-08-05T17:47:45;7.60;;;1.70;;
23826;SDS011;12094;50.822;4.376;2022-08-05T17:50:22;6.82;;;1.40;;
23826;SDS011;12094;50.822;4.376;2022-08-05T17:52:59;6.70;;;1.25;;